Time;durP1;ratioP1;P1;durP2;ratioP2;P2;SDS_P1;SDS_P2;PMS_P1;PMS_P2;Temp;Humidity;BMP_temperature;BMP_pressure;BME280_temperature;BME280_humidity;BME280_pressure;Samples;Min_cycle;Max_cycle;Signal;HPM_P1;HPM_P2
2022/02/07 00:01:08;;;;;;;2.20;0.10;;;;;;;;;;5032772;28;20203;-64
2022/02/07 00:03:43;;;;;;;0.67;0.67;;;;;;;;;;5034516;28;20345;-64
2022/02/07 00:06:13;;;;;;;0.37;0.30;;;;;;;;;;5030228;28;20208;-63
2022/02/07 00:08:40;;;;;;;0.33;0.27;;;;;;;;;;5033950;28;20306;-64
2022/02/07 00:11:07;;;;;;;0.53;0.53;;;;;;;;;;5030484;28;20197;-65
2022/02/07 00:13:35;;;;;;;0.67;0.53;;;;;;;;;;5031476;28;20224;-69
2022/02/07 00:16:04;;;;;;;1.07;0.47;;;;;;;;;;5032452;28;20200;-63
2022/02/07 00:18:32;;;;;;;1.07;0.27;;;;;;;;;;5034010;28;20208;-66
2022/02/07 00:20:59;;;;;;;11.20;2.10;;;;;;;;;;5034530;28;20297;-65
2022/02/07 00:23:27;;;;;;;1.57;0.57;;;;;;;;;;5033035;28;20663;-64
2022/02/07 00:25:55;;;;;;;1.07;1.07;;;;;;;;;;5031745;28;20774;-65
2022/02/07 00:28:22;;;;;;;0.77;0.40;;;;;;;;;;5034441;28;20208;-65
2022/02/07 00:30:50;;;;;;;0.10;0.10;;;;;;;;;;5032279;28;20207;-70
2022/02/07 00:33:19;;;;;;;0.00;0.00;;;;;;;;;;5035598;28;20200;-65
2022/02/07 00:35:46;;;;;;;0.10;0.10;;;;;;;;;;5034075;28;20200;-70
2022/02/07 00:38:18;;;;;;;0.00;0.00;;;;;;;;;;5037863;28;20196;-63
2022/02/07 00:41:01;;;;;;;1.17;0.37;;;;;;;;;;5038719;28;20203;-65
2022/02/07 00:43:39;;;;;;;0.53;0.40;;;;;;;;;;5036866;28;20249;-63
2022/02/07 00:46:09;;;;;;;1.43;0.37;;;;;;;;;;5036690;28;20204;-64
2022/02/07 00:48:38;;;;;;;0.30;0.23;;;;;;;;;;5033373;28;20203;-64
2022/02/07 00:51:06;;;;;;;0.30;0.30;;;;;;;;;;5033572;28;20204;-63
2022/02/07 00:53:33;;;;;;;0.13;0.10;;;;;;;;;;5036833;28;20203;-64
2022/02/07 00:56:01;;;;;;;2.27;0.60;;;;;;;;;;5045249;28;20204;-68
2022/02/07 00:58:29;;;;;;;0.23;0.23;;;;;;;;;;5045828;28;20688;-63
2022/02/07 01:00:56;;;;;;;0.10;0.10;;;;;;;;;;5034079;28;20230;-67
2022/02/07 01:03:24;;;;;;;0.00;0.00;;;;;;;;;;5033042;28;20925;-67
2022/02/07 01:05:53;;;;;;;0.00;0.00;;;;;;;;;;5032677;28;20202;-64
2022/02/07 01:08:28;;;;;;;0.73;0.43;;;;;;;;;;5031561;28;20290;-64
2022/02/07 01:11:02;;;;;;;0.10;0.10;;;;;;;;;;5034076;28;20214;-66
2022/02/07 01:13:45;;;;;;;2.93;0.30;;;;;;;;;;5033609;28;20249;-65
2022/02/07 01:16:29;;;;;;;0.00;0.00;;;;;;;;;;5033310;28;20207;-67
2022/02/07 01:50:09;;;;;;;0.00;0.00;;;;;;;;;;5005173;28;20325;-65
2022/02/07 01:52:47;;;;;;;0.00;0.00;;;;;;;;;;5031992;28;20226;-66
2022/02/07 01:55:30;;;;;;;0.40;0.10;;;;;;;;;;5031838;28;20203;-64
2022/02/07 01:57:58;;;;;;;0.00;0.00;;;;;;;;;;5032390;28;20204;-66
2022/02/07 02:00:26;;;;;;;0.20;0.20;;;;;;;;;;5030625;28;20199;-65
2022/02/07 02:02:53;;;;;;;2.03;0.40;;;;;;;;;;5031489;28;20204;-65
2022/02/07 02:05:21;;;;;;;0.00;0.00;;;;;;;;;;5031086;28;20202;-64
2022/02/07 02:07:50;;;;;;;0.00;0.00;;;;;;;;;;5031830;28;20230;-65
2022/02/07 02:10:19;;;;;;;0.93;0.90;;;;;;;;;;5028339;28;20730;-65
2022/02/07 02:12:56;;;;;;;0.07;0.07;;;;;;;;;;5030274;28;20660;-66
2022/02/07 02:15:34;;;;;;;0.50;0.50;;;;;;;;;;5033093;28;20575;-64
2022/02/07 02:37:15;;;;;;;0.00;0.00;;;;;;;;;;5006678;28;20258;-67
2022/02/07 02:48:08;;;;;;;0.47;0.00;;;;;;;;;;5014987;28;20227;-66
2022/02/07 02:50:36;;;;;;;0.00;0.00;;;;;;;;;;5031196;28;20821;-66
2022/02/07 02:53:05;;;;;;;0.00;0.00;;;;;;;;;;5030922;28;20205;-65
2022/02/07 02:55:34;;;;;;;0.00;0.00;;;;;;;;;;5031666;28;21012;-66
2022/02/07 02:58:02;;;;;;;0.10;0.10;;;;;;;;;;5036953;28;20184;-64
2022/02/07 03:00:30;;;;;;;0.33;0.33;;;;;;;;;;5036486;28;20600;-65
2022/02/07 03:02:58;;;;;;;0.00;0.00;;;;;;;;;;5035837;28;20665;-63
2022/02/07 03:05:25;;;;;;;0.23;0.20;;;;;;;;;;5035898;28;20577;-64
2022/02/07 03:07:53;;;;;;;0.67;0.07;;;;;;;;;;5032550;28;20242;-64
2022/02/07 03:10:27;;;;;;;5.20;2.30;;;;;;;;;;5030164;28;20808;-65
2022/02/07 03:13:10;;;;;;;0.00;0.00;;;;;;;;;;5030926;28;20203;-65
2022/02/07 03:18:23;;;;;;;0.00;0.00;;;;;;;;;;5032770;28;20326;-65
2022/02/07 03:20:50;;;;;;;0.63;0.63;;;;;;;;;;5032177;28;20661;-63
2022/02/07 03:23:18;;;;;;;0.10;0.10;;;;;;;;;;5030722;28;20199;-64
2022/02/07 03:25:45;;;;;;;0.43;0.43;;;;;;;;;;5031066;28;20205;-64
2022/02/07 03:28:14;;;;;;;0.10;0.10;;;;;;;;;;5035511;28;22174;-65
2022/02/07 03:30:42;;;;;;;0.87;0.83;;;;;;;;;;5035038;28;20205;-65
2022/02/07 03:33:10;;;;;;;0.00;0.00;;;;;;;;;;5034667;28;20595;-64
2022/02/07 03:35:37;;;;;;;0.00;0.00;;;;;;;;;;5035009;28;20204;-65
2022/02/07 03:38:06;;;;;;;0.00;0.00;;;;;;;;;;5033548;28;20200;-64
2022/02/07 03:40:33;;;;;;;0.10;0.10;;;;;;;;;;5033240;28;20203;-67
2022/02/07 03:43:01;;;;;;;0.00;0.00;;;;;;;;;;5034337;28;20227;-65
2022/02/07 03:45:30;;;;;;;0.90;0.67;;;;;;;;;;5036739;28;20200;-64
2022/02/07 03:47:57;;;;;;;0.50;0.27;;;;;;;;;;5033474;28;22087;-64
2022/02/07 03:50:24;;;;;;;0.00;0.00;;;;;;;;;;5034746;28;20209;-66
2022/02/07 03:52:52;;;;;;;1.23;0.27;;;;;;;;;;5034494;28;20261;-65
2022/02/07 03:55:19;;;;;;;0.00;0.00;;;;;;;;;;5033029;28;20208;-67
2022/02/07 03:57:47;;;;;;;1.60;0.10;;;;;;;;;;5034743;28;20207;-65
2022/02/07 04:00:15;;;;;;;0.00;0.00;;;;;;;;;;5034881;28;20211;-65
2022/02/07 04:02:48;;;;;;;0.43;0.43;;;;;;;;;;5032671;28;21026;-64
2022/02/07 04:05:41;;;;;;;0.00;0.00;;;;;;;;;;5034680;28;21297;-65
2022/02/07 04:08:09;;;;;;;6.53;0.80;;;;;;;;;;5035691;28;20236;-65
2022/02/07 04:10:45;;;;;;;0.27;0.27;;;;;;;;;;5033601;28;20206;-65
2022/02/07 04:13:13;;;;;;;0.00;0.00;;;;;;;;;;5033792;28;20230;-67
2022/02/07 04:15:41;;;;;;;0.00;0.00;;;;;;;;;;5035538;28;20203;-65
2022/02/07 04:18:13;;;;;;;0.13;0.13;;;;;;;;;;5034103;28;20291;-65
2022/02/07 04:20:41;;;;;;;0.00;0.00;;;;;;;;;;5029458;28;20945;-65
2022/02/07 04:23:08;;;;;;;0.00;0.00;;;;;;;;;;5031114;28;20219;-66
2022/02/07 04:25:35;;;;;;;1.50;0.10;;;;;;;;;;5034243;28;20191;-65
2022/02/07 04:28:03;;;;;;;0.17;0.13;;;;;;;;;;5034527;28;20216;-64
2022/02/07 04:30:30;;;;;;;7.30;1.50;;;;;;;;;;5032111;28;20562;-65
2022/02/07 04:32:58;;;;;;;0.00;0.00;;;;;;;;;;5031918;28;20206;-65
2022/02/07 04:35:26;;;;;;;0.00;0.00;;;;;;;;;;5035039;28;20693;-67
2022/02/07 04:37:54;;;;;;;0.20;0.20;;;;;;;;;;5032050;28;20769;-63
2022/02/07 04:40:21;;;;;;;0.00;0.00;;;;;;;;;;5032362;28;20202;-67
2022/02/07 04:42:49;;;;;;;0.20;0.10;;;;;;;;;;5031355;28;20203;-65
2022/02/07 04:45:37;;;;;;;0.00;0.00;;;;;;;;;;5034666;28;20193;-64
2022/02/07 04:51:06;;;;;;;0.07;0.07;;;;;;;;;;5032920;28;20342;-66
2022/02/07 04:53:51;;;;;;;0.30;0.30;;;;;;;;;;5033364;28;20199;-66
2022/02/07 04:57:02;;;;;;;0.10;0.10;;;;;;;;;;5032205;28;20656;-65
2022/02/07 04:59:11;;;;;;;0.00;0.00;;;;;;;;;;5033208;28;20357;-65
2022/02/07 05:01:48;;;;;;;0.33;0.33;;;;;;;;;;5030153;28;20204;-65
2022/02/07 05:04:28;;;;;;;0.00;0.00;;;;;;;;;;5032819;28;20300;-65
2022/02/07 05:15:12;;;;;;;0.10;0.10;;;;;;;;;;5034049;28;20257;-68
2022/02/07 05:17:40;;;;;;;0.00;0.00;;;;;;;;;;5032417;28;20207;-64
2022/02/07 05:20:09;;;;;;;0.67;0.17;;;;;;;;;;5029900;28;20257;-65
2022/02/07 05:22:38;;;;;;;0.13;0.13;;;;;;;;;;5032139;28;20207;-65
2022/02/07 05:25:06;;;;;;;0.67;0.43;;;;;;;;;;5032111;28;20950;-66
2022/02/07 05:27:34;;;;;;;0.00;0.00;;;;;;;;;;5031890;28;20234;-66
2022/02/07 05:30:02;;;;;;;0.87;0.50;;;;;;;;;;5032569;28;22208;-62
2022/02/07 05:32:30;;;;;;;0.07;0.07;;;;;;;;;;5033505;28;20728;-63
2022/02/07 05:34:57;;;;;;;2.10;0.60;;;;;;;;;;5031934;28;20418;-64
2022/02/07 05:37:24;;;;;;;3.90;1.60;;;;;;;;;;5032332;28;20199;-66
2022/02/07 05:39:58;;;;;;;0.00;0.00;;;;;;;;;;5034181;28;20210;-64
2022/02/07 05:42:26;;;;;;;0.37;0.37;;;;;;;;;;5032856;28;20207;-64
2022/02/07 05:44:53;;;;;;;0.00;0.00;;;;;;;;;;5030768;28;20196;-63
2022/02/07 05:47:21;;;;;;;0.00;0.00;;;;;;;;;;5031415;28;20293;-63
2022/02/07 05:49:48;;;;;;;0.10;0.10;;;;;;;;;;5029870;28;20192;-64
2022/02/07 05:52:15;;;;;;;0.20;0.10;;;;;;;;;;5029932;28;20597;-67
2022/02/07 05:54:45;;;;;;;0.00;0.00;;;;;;;;;;5032609;28;20204;-62
2022/02/07 05:57:14;;;;;;;0.00;0.00;;;;;;;;;;5030586;28;20290;-64
2022/02/07 05:59:42;;;;;;;6.03;0.30;;;;;;;;;;5031756;28;20199;-64
2022/02/07 06:02:09;;;;;;;0.00;0.00;;;;;;;;;;5039482;28;20191;-64
2022/02/07 06:04:36;;;;;;;0.00;0.00;;;;;;;;;;5034662;28;20930;-65
2022/02/07 06:07:04;;;;;;;0.03;0.03;;;;;;;;;;5036451;28;20200;-64
2022/02/07 06:09:31;;;;;;;0.00;0.00;;;;;;;;;;5036650;28;20238;-63
2022/02/07 06:11:59;;;;;;;1.20;1.10;;;;;;;;;;5038523;28;20199;-63
2022/02/07 06:14:27;;;;;;;0.83;0.50;;;;;;;;;;5034656;28;20202;-63
2022/02/07 06:16:55;;;;;;;0.00;0.00;;;;;;;;;;5038522;28;20196;-64
2022/02/07 06:19:22;;;;;;;0.00;0.00;;;;;;;;;;5038902;28;20196;-63
2022/02/07 06:21:52;;;;;;;0.00;0.00;;;;;;;;;;5031614;28;20200;-64
2022/02/07 06:24:19;;;;;;;0.00;0.00;;;;;;;;;;5035096;28;20976;-64
2022/02/07 06:26:46;;;;;;;0.43;0.10;;;;;;;;;;5034660;28;20243;-64
2022/02/07 06:29:14;;;;;;;0.03;0.03;;;;;;;;;;5036120;28;20228;-65
2022/02/07 06:31:42;;;;;;;0.20;0.20;;;;;;;;;;5032972;28;20290;-65
2022/02/07 06:34:10;;;;;;;0.00;0.00;;;;;;;;;;5033787;28;20199;-64
2022/02/07 06:36:37;;;;;;;0.00;0.00;;;;;;;;;;5035055;28;20330;-65
2022/02/07 06:39:04;;;;;;;0.37;0.37;;;;;;;;;;5035166;28;20210;-62
2022/02/07 06:41:32;;;;;;;0.00;0.00;;;;;;;;;;5035273;28;20584;-65
2022/02/07 06:43:59;;;;;;;0.00;0.00;;;;;;;;;;5035149;28;20203;-64
2022/02/07 06:46:26;;;;;;;4.43;0.37;;;;;;;;;;5032825;28;20211;-64
2022/02/07 06:48:55;;;;;;;0.00;0.00;;;;;;;;;;5034024;28;20712;-63
2022/02/07 06:51:22;;;;;;;0.47;0.20;;;;;;;;;;5037523;28;20202;-63
2022/02/07 06:53:51;;;;;;;0.00;0.00;;;;;;;;;;5032771;28;20673;-64
2022/02/07 06:56:20;;;;;;;0.00;0.00;;;;;;;;;;5037079;28;20199;-64
2022/02/07 06:58:48;;;;;;;0.00;0.00;;;;;;;;;;5036162;28;20676;-64
2022/02/07 07:01:15;;;;;;;0.00;0.00;;;;;;;;;;5042621;28;20206;-65
2022/02/07 07:03:45;;;;;;;0.30;0.17;;;;;;;;;;5034903;28;20187;-64
2022/02/07 07:06:15;;;;;;;0.20;0.20;;;;;;;;;;5035707;28;20291;-64
2022/02/07 07:08:46;;;;;;;0.50;0.17;;;;;;;;;;5035532;28;20222;-63
2022/02/07 07:11:17;;;;;;;0.00;0.00;;;;;;;;;;5034167;28;20307;-64
2022/02/07 07:13:49;;;;;;;0.00;0.00;;;;;;;;;;5038358;28;20594;-64
2022/02/07 07:16:38;;;;;;;0.30;0.30;;;;;;;;;;5033330;28;20751;-66
2022/02/07 07:19:06;;;;;;;0.30;0.30;;;;;;;;;;5032850;28;20195;-65
2022/02/07 07:21:35;;;;;;;0.00;0.00;;;;;;;;;;5033554;28;20212;-65
2022/02/07 07:24:03;;;;;;;0.00;0.00;;;;;;;;;;5036382;28;20203;-68
2022/02/07 07:26:31;;;;;;;0.00;0.00;;;;;;;;;;5042606;28;20361;-66
2022/02/07 07:29:01;;;;;;;2.90;0.23;;;;;;;;;;5037656;28;20219;-63
2022/02/07 07:31:30;;;;;;;0.03;0.03;;;;;;;;;;5037857;28;20217;-64
2022/02/07 07:33:57;;;;;;;0.00;0.00;;;;;;;;;;5040401;28;20203;-64
2022/02/07 07:36:24;;;;;;;0.00;0.00;;;;;;;;;;5039159;28;20202;-64
2022/02/07 07:38:53;;;;;;;0.20;0.10;;;;;;;;;;5038273;28;20195;-66
2022/02/07 07:41:20;;;;;;;0.00;0.00;;;;;;;;;;5039427;28;20575;-64
2022/02/07 07:43:49;;;;;;;0.00;0.00;;;;;;;;;;5037096;28;20211;-65
2022/02/07 07:46:20;;;;;;;0.10;0.10;;;;;;;;;;5036590;28;20192;-65
2022/02/07 07:48:56;;;;;;;0.00;0.00;;;;;;;;;;5039173;28;20301;-65
2022/02/07 07:51:34;;;;;;;0.00;0.00;;;;;;;;;;5036639;28;20275;-64
2022/02/07 07:54:20;;;;;;;1.23;0.27;;;;;;;;;;5035535;28;20358;-63
2022/02/07 08:02:19;;;;;;;0.00;0.00;;;;;;;;;;5037939;28;20266;-67
2022/02/07 08:04:48;;;;;;;0.00;0.00;;;;;;;;;;5034901;28;20200;-68
2022/02/07 08:07:20;;;;;;;0.00;0.00;;;;;;;;;;5034938;28;20212;-69
2022/02/07 08:12:32;;;;;;;0.00;0.00;;;;;;;;;;5031511;28;20207;-67
2022/02/07 08:14:59;;;;;;;0.00;0.00;;;;;;;;;;5036499;28;20580;-67
2022/02/07 08:17:26;;;;;;;0.00;0.00;;;;;;;;;;5035656;28;20203;-64
2022/02/07 08:19:54;;;;;;;0.00;0.00;;;;;;;;;;5039754;28;20704;-67
2022/02/07 08:22:23;;;;;;;0.00;0.00;;;;;;;;;;5037987;28;20196;-67
2022/02/07 08:24:55;;;;;;;0.00;0.00;;;;;;;;;;5040700;28;20257;-68
2022/02/07 08:27:23;;;;;;;5.20;0.40;;;;;;;;;;5042057;28;20309;-64
2022/02/07 08:29:51;;;;;;;0.00;0.00;;;;;;;;;;5047118;28;20269;-64
2022/02/07 08:32:19;;;;;;;0.00;0.00;;;;;;;;;;5047724;28;20199;-67
2022/02/07 08:34:46;;;;;;;0.00;0.00;;;;;;;;;;5050387;28;20196;-66
2022/02/07 08:37:14;;;;;;;0.00;0.00;;;;;;;;;;5049945;28;20198;-65
2022/02/07 08:39:42;;;;;;;0.60;0.43;;;;;;;;;;5045468;28;20196;-66
2022/02/07 08:42:11;;;;;;;0.00;0.00;;;;;;;;;;5028039;28;20220;-67
2022/02/07 08:44:39;;;;;;;0.60;0.07;;;;;;;;;;5038066;28;20215;-66
2022/02/07 08:47:07;;;;;;;1.37;1.27;;;;;;;;;;5044576;28;20214;-69
2022/02/07 08:49:35;;;;;;;0.00;0.00;;;;;;;;;;5041011;28;20231;-70
2022/02/07 08:52:03;;;;;;;0.00;0.00;;;;;;;;;;5033307;28;20261;-66
2022/02/07 08:54:32;;;;;;;0.00;0.00;;;;;;;;;;5037677;28;20207;-66
2022/02/07 08:57:12;;;;;;;0.10;0.10;;;;;;;;;;5034339;28;20207;-67
2022/02/07 08:59:53;;;;;;;0.00;0.00;;;;;;;;;;5028446;28;20204;-66
2022/02/07 09:02:36;;;;;;;0.00;0.00;;;;;;;;;;5030781;28;20207;-65
2022/02/07 09:05:19;;;;;;;0.00;0.00;;;;;;;;;;5035791;28;20562;-65
2022/02/07 09:07:50;;;;;;;4.00;0.57;;;;;;;;;;5030607;28;20212;-67
2022/02/07 09:10:17;;;;;;;0.00;0.00;;;;;;;;;;5032855;28;20915;-66
2022/02/07 09:12:47;;;;;;;0.00;0.00;;;;;;;;;;5032814;28;20200;-68
2022/02/07 09:15:31;;;;;;;0.00;0.00;;;;;;;;;;5031979;28;20204;-66
2022/02/07 09:18:04;;;;;;;0.00;0.00;;;;;;;;;;5031656;28;20676;-66
2022/02/07 09:20:31;;;;;;;0.00;0.00;;;;;;;;;;5036181;28;20687;-67
2022/02/07 09:22:59;;;;;;;0.33;0.30;;;;;;;;;;5050033;28;20204;-66
2022/02/07 09:25:26;;;;;;;0.00;0.00;;;;;;;;;;5049266;28;20665;-65
2022/02/07 09:27:54;;;;;;;4.63;0.57;;;;;;;;;;5049465;28;20238;-66
2022/02/07 09:30:23;;;;;;;0.00;0.00;;;;;;;;;;5047836;28;20220;-68
2022/02/07 09:32:50;;;;;;;0.40;0.10;;;;;;;;;;5045907;28;20208;-71
2022/02/07 09:35:18;;;;;;;0.13;0.13;;;;;;;;;;5046775;28;20200;-65
2022/02/07 09:37:46;;;;;;;2.63;0.63;;;;;;;;;;5191968;22;20232;-72
2022/02/07 09:40:14;;;;;;;0.00;0.00;;;;;;;;;;4999713;28;20208;-70
2022/02/07 09:42:46;;;;;;;1.30;0.50;;;;;;;;;;5004104;28;20289;-71
2022/02/07 09:45:18;;;;;;;0.10;0.10;;;;;;;;;;5005328;28;20233;-76
2022/02/07 09:47:47;;;;;;;0.20;0.20;;;;;;;;;;5004559;28;20669;-70
2022/02/07 09:50:15;;;;;;;0.30;0.00;;;;;;;;;;5005106;28;20701;-70
2022/02/07 09:52:42;;;;;;;0.10;0.00;;;;;;;;;;5000459;28;20197;-69
2022/02/07 09:55:10;;;;;;;0.23;0.20;;;;;;;;;;5004425;28;20661;-66
2022/02/07 09:57:37;;;;;;;0.80;0.23;;;;;;;;;;5002540;28;20213;-67
2022/02/07 10:00:07;;;;;;;0.00;0.00;;;;;;;;;;5007639;28;20216;-69
2022/02/07 10:02:43;;;;;;;0.30;0.30;;;;;;;;;;5007181;28;20206;-68
2022/02/07 10:05:20;;;;;;;0.20;0.20;;;;;;;;;;5006532;28;20259;-68
2022/02/07 10:07:58;;;;;;;0.00;0.00;;;;;;;;;;5008906;28;20540;-70
2022/02/07 10:10:30;;;;;;;0.00;0.00;;;;;;;;;;5002616;28;20225;-69
2022/02/07 10:15:51;;;;;;;2.00;0.10;;;;;;;;;;4987287;28;20200;-69
2022/02/07 10:18:31;;;;;;;1.57;0.60;;;;;;;;;;4988617;28;20662;-72
2022/02/07 10:38:09;;;;;;;2.20;0.60;;;;;;;;;;4984520;28;20573;-72
2022/02/07 10:40:40;;;;;;;3.43;0.87;;;;;;;;;;4990331;28;20685;-71
2022/02/07 10:43:21;;;;;;;1.90;0.30;;;;;;;;;;4984907;28;21348;-73
2022/02/07 10:45:59;;;;;;;0.20;0.13;;;;;;;;;;5009006;28;20557;-71
2022/02/07 10:48:44;;;;;;;0.47;0.47;;;;;;;;;;5015562;28;20216;-68
2022/02/07 10:51:13;;;;;;;1.50;0.97;;;;;;;;;;4996649;28;20262;-70
2022/02/07 10:53:43;;;;;;;0.00;0.00;;;;;;;;;;4984728;28;20209;-70
2022/02/07 10:56:11;;;;;;;0.07;0.00;;;;;;;;;;4988436;28;20204;-72
2022/02/07 10:58:39;;;;;;;0.10;0.03;;;;;;;;;;4985908;28;20680;-71
2022/02/07 11:01:12;;;;;;;0.00;0.00;;;;;;;;;;4986061;28;20196;-71
2022/02/07 11:03:44;;;;;;;0.63;0.10;;;;;;;;;;4988412;28;20211;-69
2022/02/07 11:06:15;;;;;;;5.20;0.57;;;;;;;;;;4985613;28;20201;-70
2022/02/07 11:08:51;;;;;;;0.90;0.37;;;;;;;;;;4985966;28;20289;-69
2022/02/07 11:14:22;;;;;;;0.00;0.00;;;;;;;;;;5002076;28;20201;-71
2022/02/07 11:17:01;;;;;;;0.37;0.37;;;;;;;;;;5005992;28;20319;-68
2022/02/07 11:19:46;;;;;;;2.93;0.77;;;;;;;;;;5007346;28;20581;-68
2022/02/07 11:22:31;;;;;;;0.00;0.00;;;;;;;;;;4985485;28;20211;-69
2022/02/07 11:25:11;;;;;;;0.10;0.10;;;;;;;;;;4988302;28;20196;-69
2022/02/07 11:27:41;;;;;;;0.00;0.00;;;;;;;;;;4989328;28;20211;-69
2022/02/07 11:30:10;;;;;;;0.00;0.00;;;;;;;;;;4990472;28;20290;-69
2022/02/07 11:32:57;;;;;;;0.00;0.00;;;;;;;;;;4996813;28;20653;-69
2022/02/07 11:35:27;;;;;;;0.00;0.00;;;;;;;;;;4993171;28;20255;-70
2022/02/07 11:38:11;;;;;;;0.10;0.10;;;;;;;;;;4984821;28;20360;-71
2022/02/07 11:40:41;;;;;;;1.10;0.00;;;;;;;;;;4985632;28;20673;-69
2022/02/07 11:43:16;;;;;;;0.20;0.10;;;;;;;;;;4999656;28;20208;-69
2022/02/07 11:45:54;;;;;;;1.73;0.30;;;;;;;;;;5005820;28;20209;-73
2022/02/07 11:48:29;;;;;;;0.27;0.27;;;;;;;;;;5005714;28;20209;-69
2022/02/07 11:50:58;;;;;;;0.00;0.00;;;;;;;;;;5013458;28;20256;-68
2022/02/07 11:53:31;;;;;;;0.13;0.13;;;;;;;;;;5008766;28;20324;-69
2022/02/07 11:56:07;;;;;;;0.00;0.00;;;;;;;;;;5012315;28;20653;-69
2022/02/07 11:58:53;;;;;;;7.93;1.90;;;;;;;;;;5010252;28;20235;-68
2022/02/07 12:01:44;;;;;;;2.10;0.30;;;;;;;;;;5009158;28;20551;-69
2022/02/07 12:04:13;;;;;;;0.37;0.37;;;;;;;;;;5012201;28;20197;-68
2022/02/07 12:06:40;;;;;;;0.10;0.10;;;;;;;;;;5013744;28;20196;-70
2022/02/07 12:09:22;;;;;;;0.67;0.67;;;;;;;;;;5013621;28;20688;-68
2022/02/07 12:11:49;;;;;;;0.10;0.10;;;;;;;;;;5012823;28;20259;-69
2022/02/07 12:14:29;;;;;;;9.53;1.17;;;;;;;;;;5011983;28;20197;-69
2022/02/07 12:16:57;;;;;;;0.00;0.00;;;;;;;;;;5011102;28;20201;-69
2022/02/07 12:19:35;;;;;;;0.47;0.20;;;;;;;;;;5012356;28;20217;-70
2022/02/07 12:22:13;;;;;;;0.60;0.17;;;;;;;;;;5012559;28;20204;-68
2022/02/07 12:24:54;;;;;;;2.07;0.30;;;;;;;;;;5012486;28;20201;-69
2022/02/07 12:27:22;;;;;;;0.50;0.13;;;;;;;;;;5012209;28;20657;-69
2022/02/07 12:30:05;;;;;;;0.33;0.27;;;;;;;;;;5004374;28;20225;-71
2022/02/07 12:32:33;;;;;;;0.17;0.17;;;;;;;;;;4999518;28;20215;-68
2022/02/07 12:35:02;;;;;;;2.90;0.67;;;;;;;;;;5013119;28;20197;-68
2022/02/07 12:37:35;;;;;;;0.97;0.57;;;;;;;;;;4996779;28;20199;-70
2022/02/07 12:40:04;;;;;;;0.10;0.10;;;;;;;;;;5008339;28;20201;-70
2022/02/07 12:42:32;;;;;;;4.83;0.53;;;;;;;;;;5004102;28;20204;-68
2022/02/07 12:44:59;;;;;;;1.67;0.83;;;;;;;;;;5012133;28;20201;-69
2022/02/07 12:47:27;;;;;;;1.00;0.20;;;;;;;;;;5016664;28;20211;-69
2022/02/07 12:49:56;;;;;;;0.13;0.10;;;;;;;;;;5007799;28;20315;-68
2022/02/07 12:52:35;;;;;;;0.37;0.10;;;;;;;;;;5008157;28;20300;-68
2022/02/07 12:55:02;;;;;;;0.20;0.00;;;;;;;;;;5011296;28;20336;-69
2022/02/07 12:57:34;;;;;;;3.90;0.53;;;;;;;;;;5009859;28;20197;-69
2022/02/07 13:00:01;;;;;;;0.57;0.30;;;;;;;;;;5028711;28;20219;-69
2022/02/07 13:02:29;;;;;;;1.80;0.30;;;;;;;;;;5010551;28;20212;-69
2022/02/07 13:04:56;;;;;;;0.57;0.33;;;;;;;;;;5011854;28;20205;-69
2022/02/07 13:07:26;;;;;;;1.53;0.80;;;;;;;;;;5007116;28;20205;-69
2022/02/07 13:09:56;;;;;;;0.17;0.17;;;;;;;;;;5014985;28;21068;-69
2022/02/07 13:12:37;;;;;;;0.40;0.23;;;;;;;;;;5014365;28;20304;-72
2022/02/07 13:15:12;;;;;;;0.20;0.20;;;;;;;;;;5012101;28;20840;-69
2022/02/07 13:17:40;;;;;;;4.03;0.50;;;;;;;;;;5003302;28;20670;-68
2022/02/07 13:20:09;;;;;;;1.07;0.40;;;;;;;;;;4999063;28;20230;-69
2022/02/07 13:22:36;;;;;;;2.00;0.30;;;;;;;;;;5010468;28;20212;-68
2022/02/07 13:25:08;;;;;;;1.00;0.40;;;;;;;;;;5011763;28;20193;-71
2022/02/07 13:27:39;;;;;;;2.33;0.60;;;;;;;;;;4986370;28;20212;-68
2022/02/07 13:30:10;;;;;;;3.67;0.77;;;;;;;;;;4994567;28;20722;-69
2022/02/07 13:32:37;;;;;;;2.00;0.00;;;;;;;;;;5010296;28;20201;-68
2022/02/07 13:35:06;;;;;;;0.23;0.17;;;;;;;;;;5011297;28;20672;-68
2022/02/07 13:37:36;;;;;;;0.20;0.10;;;;;;;;;;4999840;28;20201;-73
2022/02/07 13:40:06;;;;;;;2.80;0.80;;;;;;;;;;5009784;28;20297;-68
2022/02/07 13:42:34;;;;;;;0.60;0.60;;;;;;;;;;5007565;28;20200;-68
2022/02/07 13:45:08;;;;;;;1.17;0.93;;;;;;;;;;5009443;28;20692;-68
2022/02/07 13:47:36;;;;;;;0.57;0.40;;;;;;;;;;5007218;28;20782;-69
2022/02/07 13:50:06;;;;;;;0.73;0.50;;;;;;;;;;4994129;28;20243;-69
2022/02/07 13:52:35;;;;;;;0.77;0.27;;;;;;;;;;5011052;28;20231;-68
2022/02/07 13:55:17;;;;;;;1.70;0.63;;;;;;;;;;5008569;28;20205;-69
2022/02/07 13:57:53;;;;;;;0.83;0.40;;;;;;;;;;5006503;28;20237;-70
2022/02/07 14:00:21;;;;;;;0.30;0.30;;;;;;;;;;5010081;28;20250;-69
2022/02/07 14:02:49;;;;;;;0.47;0.40;;;;;;;;;;5011101;28;20204;-69
2022/02/07 14:05:18;;;;;;;1.80;0.83;;;;;;;;;;5010565;28;20193;-68
2022/02/07 14:07:52;;;;;;;0.17;0.17;;;;;;;;;;5007471;28;20207;-70
2022/02/07 14:10:20;;;;;;;2.10;0.40;;;;;;;;;;5000622;28;20252;-68
2022/02/07 14:12:51;;;;;;;0.10;0.10;;;;;;;;;;5002356;28;20319;-72
2022/02/07 14:15:20;;;;;;;4.70;0.43;;;;;;;;;;4990602;28;20654;-72
2022/02/07 14:17:47;;;;;;;1.10;0.13;;;;;;;;;;4993112;28;20198;-69
2022/02/07 14:20:19;;;;;;;0.00;0.00;;;;;;;;;;4998302;28;20197;-67
2022/02/07 14:22:46;;;;;;;1.50;0.57;;;;;;;;;;4995839;28;20658;-69
2022/02/07 14:25:14;;;;;;;1.37;0.13;;;;;;;;;;4995027;28;20207;-71
2022/02/07 14:27:41;;;;;;;0.23;0.23;;;;;;;;;;4998773;28;20289;-75
2022/02/07 14:30:11;;;;;;;0.10;0.10;;;;;;;;;;4992628;28;20245;-70
2022/02/07 14:32:40;;;;;;;0.90;0.20;;;;;;;;;;4996525;28;20193;-70
2022/02/07 14:35:09;;;;;;;1.03;0.47;;;;;;;;;;4994930;28;20681;-69
2022/02/07 14:37:36;;;;;;;1.13;0.70;;;;;;;;;;4996460;28;20204;-73
2022/02/07 14:40:04;;;;;;;2.00;0.60;;;;;;;;;;4995548;28;20193;-71
2022/02/07 14:42:31;;;;;;;0.63;0.37;;;;;;;;;;5002485;28;20216;-69
2022/02/07 14:45:09;;;;;;;0.43;0.13;;;;;;;;;;5009380;28;20197;-69
2022/02/07 14:47:50;;;;;;;2.07;0.47;;;;;;;;;;5006689;28;20209;-71
2022/02/07 14:50:21;;;;;;;0.17;0.17;;;;;;;;;;5006980;28;20264;-70
2022/02/07 14:52:48;;;;;;;0.73;0.60;;;;;;;;;;4997401;28;20209;-70
2022/02/07 14:55:15;;;;;;;0.73;0.67;;;;;;;;;;5008224;28;20649;-68
2022/02/07 14:57:43;;;;;;;1.30;0.23;;;;;;;;;;5009385;28;20215;-72
2022/02/07 15:00:12;;;;;;;1.50;1.10;;;;;;;;;;5003438;28;20197;-72
2022/02/07 15:02:39;;;;;;;2.80;0.30;;;;;;;;;;5009126;28;20666;-69
2022/02/07 15:05:07;;;;;;;0.87;0.63;;;;;;;;;;5010056;28;20197;-69
2022/02/07 15:07:36;;;;;;;0.23;0.13;;;;;;;;;;5007466;28;20208;-70
2022/02/07 15:10:04;;;;;;;0.37;0.23;;;;;;;;;;5002878;28;20220;-69
2022/02/07 15:12:31;;;;;;;0.07;0.07;;;;;;;;;;5010281;28;20208;-70
2022/02/07 15:14:59;;;;;;;0.37;0.33;;;;;;;;;;5002837;28;20204;-71
2022/02/07 15:17:28;;;;;;;0.43;0.40;;;;;;;;;;4991492;28;20284;-68
2022/02/07 15:19:56;;;;;;;0.47;0.40;;;;;;;;;;4996107;28;20208;-69
2022/02/07 15:22:23;;;;;;;0.00;0.00;;;;;;;;;;4997996;28;20197;-70
2022/02/07 15:24:55;;;;;;;3.40;0.87;;;;;;;;;;4998179;28;20197;-71
2022/02/07 15:27:22;;;;;;;1.30;0.63;;;;;;;;;;4995928;28;20201;-67
2022/02/07 15:29:50;;;;;;;0.30;0.30;;;;;;;;;;5000845;28;20320;-68
2022/02/07 15:32:26;;;;;;;1.57;0.63;;;;;;;;;;5009252;28;21369;-69
2022/02/07 15:34:54;;;;;;;0.37;0.23;;;;;;;;;;5011635;28;20204;-68
2022/02/07 15:37:21;;;;;;;5.27;1.23;;;;;;;;;;5009976;28;20200;-69
2022/02/07 15:39:49;;;;;;;1.90;1.10;;;;;;;;;;5002557;28;20239;-68
2022/02/07 15:42:18;;;;;;;0.10;0.10;;;;;;;;;;5011913;28;20209;-68
2022/02/07 15:44:46;;;;;;;0.60;0.60;;;;;;;;;;5011145;28;20287;-68
2022/02/07 15:47:34;;;;;;;0.03;0.03;;;;;;;;;;5024114;28;20577;-67
2022/02/07 15:50:15;;;;;;;0.03;0.03;;;;;;;;;;5018732;28;20224;-67
2022/02/07 15:52:44;;;;;;;0.30;0.30;;;;;;;;;;5013616;28;20205;-68
2022/02/07 15:55:12;;;;;;;1.23;0.13;;;;;;;;;;5021266;28;20665;-73
2022/02/07 15:57:41;;;;;;;0.23;0.23;;;;;;;;;;5013179;28;20189;-68
2022/02/07 16:00:10;;;;;;;7.20;0.70;;;;;;;;;;5013356;28;20256;-70
2022/02/07 16:02:41;;;;;;;0.00;0.00;;;;;;;;;;5007602;28;20201;-69
2022/02/07 16:05:08;;;;;;;0.00;0.00;;;;;;;;;;5012506;28;20228;-71
2022/02/07 16:07:36;;;;;;;0.63;0.30;;;;;;;;;;5011478;28;20212;-70
2022/02/07 16:10:03;;;;;;;1.90;0.87;;;;;;;;;;5014090;28;20205;-73
2022/02/07 16:12:30;;;;;;;0.10;0.10;;;;;;;;;;5009663;28;20237;-69
2022/02/07 16:14:59;;;;;;;0.83;0.67;;;;;;;;;;5018199;28;20682;-69
2022/02/07 16:17:26;;;;;;;0.00;0.00;;;;;;;;;;5012649;28;20657;-69
2022/02/07 16:19:56;;;;;;;0.00;0.00;;;;;;;;;;5006991;28;20638;-71
2022/02/07 16:22:24;;;;;;;0.10;0.00;;;;;;;;;;5005920;28;20201;-72
2022/02/07 16:24:51;;;;;;;0.57;0.20;;;;;;;;;;5003811;28;20288;-69
2022/02/07 16:27:18;;;;;;;0.60;0.33;;;;;;;;;;5012312;28;20207;-69
2022/02/07 16:29:46;;;;;;;0.10;0.10;;;;;;;;;;5001065;28;20210;-69
2022/02/07 16:32:18;;;;;;;0.40;0.10;;;;;;;;;;4992839;28;20226;-70
2022/02/07 16:34:46;;;;;;;0.00;0.00;;;;;;;;;;4990494;28;20268;-71
2022/02/07 16:37:13;;;;;;;0.20;0.20;;;;;;;;;;4996802;28;20567;-73
2022/02/07 16:39:43;;;;;;;0.63;0.63;;;;;;;;;;4997649;28;20231;-76
2022/02/07 16:42:11;;;;;;;0.27;0.27;;;;;;;;;;5000884;28;20544;-75
2022/02/07 16:44:38;;;;;;;3.13;1.03;;;;;;;;;;5013457;28;20204;-68
2022/02/07 16:47:07;;;;;;;0.27;0.27;;;;;;;;;;5004543;28;20197;-69